Time;durP1;ratioP1;P1;durP2;ratioP2;P2;SDS_P1;SDS_P2;PMS_P1;PMS_P2;Temp;Humidity;BMP_temperature;BMP_pressure;BME280_temperature;BME280_humidity;BME280_pressure;Samples;Min_cycle;Max_cycle;Signal;HPM_P1;HPM_P2
2021/12/13 00:03:08;;;;;;;25.37;18.27;;;5.90;65.70;;;;;;6238891;28;20854;-58
2021/12/13 00:06:14;;;;;;;29.97;19.40;;;6.20;65.90;;;;;;6236505;28;20262;-58
2021/12/13 00:09:21;;;;;;;26.43;18.73;;;6.00;65.90;;;;;;6238258;28;20266;-58
2021/12/13 00:12:29;;;;;;;28.23;19.43;;;6.00;65.80;;;;;;6227192;28;20325;-52
2021/12/13 00:15:37;;;;;;;29.40;19.67;;;6.20;66.00;;;;;;6230833;28;20246;-58
2021/12/13 00:18:45;;;;;;;31.00;19.30;;;6.00;65.90;;;;;;6236777;28;20293;-58
2021/12/13 00:21:52;;;;;;;25.57;17.67;;;5.90;65.80;;;;;;6237891;28;20320;-59
2021/12/13 00:25:06;;;;;;;28.67;19.90;;;6.20;65.90;;;;;;6237465;28;20246;-59
2021/12/13 00:28:15;;;;;;;26.90;18.23;;;6.20;66.00;;;;;;6233637;28;20320;-59
2021/12/13 00:31:26;;;;;;;27.57;18.67;;;6.00;65.60;;;;;;6231383;28;20754;-59
2021/12/13 00:34:36;;;;;;;26.67;18.00;;;6.20;66.00;;;;;;6235205;28;20235;-58
2021/12/13 00:37:42;;;;;;;27.37;18.83;;;6.00;65.80;;;;;;6205417;28;20758;-60
2021/12/13 00:40:49;;;;;;;26.87;18.23;;;6.20;65.90;;;;;;6204504;28;20235;-59
2021/12/13 00:43:58;;;;;;;27.27;18.47;;;6.10;65.70;;;;;;6215125;28;20242;-59
2021/12/13 00:47:06;;;;;;;29.10;20.20;;;6.20;65.90;;;;;;6232960;28;20249;-58
2021/12/13 00:50:13;;;;;;;29.37;18.73;;;6.00;65.60;;;;;;6231482;28;20243;-58
2021/12/13 00:53:18;;;;;;;24.00;18.50;;;6.20;65.80;;;;;;6230459;28;20312;-59
2021/12/13 00:56:44;;;;;;;27.67;18.97;;;6.10;65.90;;;;;;6235203;28;20269;-59
2021/12/13 00:59:56;;;;;;;27.33;19.47;;;6.30;66.00;;;;;;6221117;28;20234;-60
2021/12/13 01:03:02;;;;;;;26.60;18.73;;;6.20;66.10;;;;;;6230445;28;20607;-58
2021/12/13 01:06:58;;;;;;;26.03;18.33;;;6.10;65.90;;;;;;6232842;28;20322;-59
2021/12/13 01:10:38;;;;;;;24.33;17.87;;;6.40;66.40;;;;;;6233365;28;20315;-59
2021/12/13 01:14:02;;;;;;;25.27;18.53;;;6.10;66.10;;;;;;6231182;28;20523;-60
2021/12/13 01:17:17;;;;;;;24.93;19.10;;;6.20;66.20;;;;;;6233054;28;20246;-58
2021/12/13 01:20:29;;;;;;;26.97;19.60;;;6.10;66.00;;;;;;6229720;28;20738;-59
2021/12/13 01:23:42;;;;;;;25.43;18.97;;;6.30;66.20;;;;;;6226888;28;20235;-59
2021/12/13 01:26:50;;;;;;;27.80;19.13;;;6.20;66.20;;;;;;6227626;28;20235;-59
2021/12/13 01:29:53;;;;;;;25.07;18.90;;;6.20;66.10;;;;;;6237941;28;20230;-58
2021/12/13 01:32:59;;;;;;;24.43;19.17;;;6.20;66.10;;;;;;6219597;28;21053;-58
2021/12/13 01:36:05;;;;;;;27.30;18.47;;;6.20;66.10;;;;;;6228695;28;20370;-59
2021/12/13 01:39:13;;;;;;;26.67;18.70;;;6.20;66.00;;;;;;6230354;28;20234;-59
2021/12/13 01:42:19;;;;;;;26.90;18.33;;;6.20;66.00;;;;;;6236661;28;20485;-59
2021/12/13 01:45:22;;;;;;;25.40;18.73;;;6.40;66.30;;;;;;6228834;28;20369;-58
2021/12/13 01:48:29;;;;;;;24.33;18.93;;;6.20;66.10;;;;;;6233659;28;20309;-59
2021/12/13 01:51:33;;;;;;;26.43;18.93;;;6.40;66.30;;;;;;6229934;28;20316;-59
2021/12/13 01:54:42;;;;;;;26.03;19.40;;;6.30;66.20;;;;;;6225334;28;20243;-56
2021/12/13 01:57:50;;;;;;;27.87;18.60;;;6.50;66.30;;;;;;6226051;28;20740;-58
2021/12/13 02:01:10;;;;;;;27.20;19.63;;;6.30;66.30;;;;;;6232936;28;20266;-59
2021/12/13 02:04:15;;;;;;;26.03;19.37;;;6.30;66.30;;;;;;6219662;28;20393;-57
2021/12/13 02:07:18;;;;;;;26.03;19.20;;;6.30;66.20;;;;;;6241791;28;20234;-59
2021/12/13 02:10:32;;;;;;;25.03;19.17;;;6.40;66.40;;;;;;6239766;28;20655;-59
2021/12/13 02:13:42;;;;;;;24.90;18.93;;;6.50;66.40;;;;;;6234568;28;20617;-60
2021/12/13 02:16:58;;;;;;;25.77;19.00;;;6.50;66.50;;;;;;6237744;28;20253;-58
2021/12/13 02:20:12;;;;;;;26.50;18.93;;;6.30;66.20;;;;;;6219980;28;20235;-58
2021/12/13 02:23:17;;;;;;;26.50;19.00;;;6.40;66.40;;;;;;6239040;28;20253;-58
2021/12/13 02:26:21;;;;;;;28.37;18.30;;;6.40;66.40;;;;;;6237014;28;20250;-58
2021/12/13 02:29:35;;;;;;;27.17;18.87;;;6.40;66.40;;;;;;6239137;28;20337;-58
2021/12/13 02:32:40;;;;;;;27.63;19.10;;;6.40;66.40;;;;;;6229947;28;20656;-58
2021/12/13 02:35:46;;;;;;;25.93;19.43;;;6.30;66.30;;;;;;6226214;28;20235;-58
2021/12/13 02:38:53;;;;;;;27.30;18.83;;;6.30;66.20;;;;;;6237566;28;20247;-59
2021/12/13 02:41:59;;;;;;;32.03;19.63;;;6.40;66.30;;;;;;6238870;28;20288;-59
2021/12/13 02:45:14;;;;;;;33.03;21.00;;;6.30;66.20;;;;;;6239438;28;20694;-58
2021/12/13 02:48:20;;;;;;;31.00;19.37;;;6.30;66.10;;;;;;6236395;28;20311;-58
2021/12/13 02:51:28;;;;;;;28.70;19.37;;;6.20;66.00;;;;;;6238599;28;20244;-58
2021/12/13 02:54:37;;;;;;;28.67;18.37;;;6.30;66.10;;;;;;6240028;28;20239;-58
2021/12/13 02:57:43;;;;;;;28.97;19.97;;;6.30;66.10;;;;;;6240111;28;20759;-58
2021/12/13 03:00:52;;;;;;;27.37;19.00;;;6.30;66.00;;;;;;6239545;28;20312;-58
2021/12/13 03:04:01;;;;;;;32.90;20.30;;;6.50;66.10;;;;;;6212942;28;20239;-61
2021/12/13 03:07:08;;;;;;;33.53;20.63;;;6.40;66.20;;;;;;6231935;28;20269;-58
2021/12/13 03:10:18;;;;;;;27.73;18.73;;;6.30;66.70;;;;;;6239759;28;20311;-58
2021/12/13 03:13:22;;;;;;;30.43;20.23;;;6.60;66.20;;;;;;6239160;28;20306;-59
2021/12/13 03:16:31;;;;;;;31.43;20.23;;;6.30;66.00;;;;;;6236355;28;20294;-59
2021/12/13 03:19:48;;;;;;;30.50;20.23;;;6.50;66.10;;;;;;6239444;28;20335;-58
2021/12/13 03:23:23;;;;;;;35.67;20.90;;;6.50;66.10;;;;;;6203950;28;20281;-58
2021/12/13 03:26:55;;;;;;;36.23;21.03;;;6.40;66.10;;;;;;6228612;28;20767;-59
2021/12/13 03:30:02;;;;;;;32.07;20.47;;;6.70;66.50;;;;;;6234421;28;20384;-59
2021/12/13 03:33:07;;;;;;;31.53;19.60;;;6.40;66.10;;;;;;6235180;28;20269;-58
2021/12/13 03:36:16;;;;;;;35.07;20.60;;;6.50;66.30;;;;;;6239333;28;20309;-58
2021/12/13 03:39:22;;;;;;;37.83;21.00;;;6.50;66.10;;;;;;6205536;28;20270;-57
2021/12/13 03:42:35;;;;;;;31.53;19.03;;;6.50;66.10;;;;;;6232527;28;20231;-59
2021/12/13 03:45:41;;;;;;;36.77;20.03;;;6.60;66.30;;;;;;6226648;28;20347;-59
2021/12/13 03:48:47;;;;;;;31.40;18.80;;;6.50;66.20;;;;;;6236175;28;20675;-59
2021/12/13 03:51:56;;;;;;;37.37;19.73;;;6.40;66.00;;;;;;6224318;28;20280;-59
2021/12/13 03:55:01;;;;;;;34.80;19.43;;;6.60;66.20;;;;;;6233282;28;20530;-59
2021/12/13 03:58:09;;;;;;;38.67;20.17;;;6.40;66.00;;;;;;6229998;28;20616;-58
2021/12/13 04:01:15;;;;;;;34.83;20.00;;;6.40;65.90;;;;;;6215199;28;20250;-58
2021/12/13 04:04:21;;;;;;;32.27;17.93;;;6.40;65.90;;;;;;6225953;28;20273;-57
2021/12/13 04:07:27;;;;;;;34.07;19.90;;;6.40;66.00;;;;;;6235556;28;20326;-59
2021/12/13 04:10:34;;;;;;;33.30;20.47;;;6.50;66.10;;;;;;6230607;28;20250;-58
2021/12/13 04:13:47;;;;;;;34.70;20.13;;;6.50;66.00;;;;;;6235089;28;20238;-58
2021/12/13 04:17:05;;;;;;;29.50;19.20;;;6.40;65.90;;;;;;6227506;28;20652;-58
2021/12/13 04:20:11;;;;;;;41.27;21.77;;;6.40;65.90;;;;;;6234115;28;20251;-58
2021/12/13 04:23:17;;;;;;;42.93;22.17;;;6.60;66.10;;;;;;6234822;28;20281;-58
2021/12/13 04:26:21;;;;;;;37.40;21.87;;;6.40;65.80;;;;;;6234823;28;20555;-55
2021/12/13 04:29:28;;;;;;;43.10;22.67;;;6.40;65.90;;;;;;6236050;28;20327;-59
2021/12/13 04:32:33;;;;;;;37.17;20.97;;;6.30;65.80;;;;;;6222102;28;20226;-59
2021/12/13 04:35:37;;;;;;;44.97;22.03;;;6.60;66.10;;;;;;6227038;28;20234;-59
2021/12/13 04:38:50;;;;;;;36.97;19.67;;;6.30;66.00;;;;;;6226209;28;20334;-60
2021/12/13 04:41:56;;;;;;;42.00;20.53;;;6.30;65.80;;;;;;6228804;28;20538;-60
2021/12/13 04:45:04;;;;;;;41.73;21.63;;;6.30;65.80;;;;;;6226379;28;20381;-59
2021/12/13 04:48:10;;;;;;;36.47;20.17;;;6.40;65.80;;;;;;6228797;28;20247;-59
2021/12/13 04:51:17;;;;;;;38.93;20.47;;;6.40;65.80;;;;;;6228343;28;20322;-62
2021/12/13 04:54:22;;;;;;;46.80;21.50;;;6.30;65.70;;;;;;6223806;28;20314;-60
2021/12/13 04:57:25;;;;;;;44.57;22.07;;;6.40;65.80;;;;;;6231746;28;20237;-60
2021/12/13 05:00:34;;;;;;;38.20;19.40;;;6.50;66.00;;;;;;6229376;28;20266;-60
2021/12/13 05:03:47;;;;;;;39.63;18.87;;;6.40;65.80;;;;;;6217166;28;20242;-59
2021/12/13 05:06:53;;;;;;;41.63;21.40;;;6.40;65.80;;;;;;6210749;28;20240;-59
2021/12/13 05:09:57;;;;;;;47.10;22.03;;;6.40;65.80;;;;;;6219018;28;20298;-58
2021/12/13 05:13:08;;;;;;;40.40;19.30;;;6.40;65.70;;;;;;6227202;28;20235;-59
2021/12/13 05:16:13;;;;;;;45.77;21.10;;;6.50;65.90;;;;;;6223679;28;20309;-59
2021/12/13 05:19:26;;;;;;;49.57;21.33;;;6.50;65.90;;;;;;6229550;28;20231;-59
2021/12/13 05:22:30;;;;;;;39.07;20.00;;;6.30;65.70;;;;;;6232619;28;20635;-59
2021/12/13 05:25:36;;;;;;;42.53;19.10;;;6.30;65.80;;;;;;6235657;28;20294;-58
2021/12/13 05:28:45;;;;;;;50.90;21.00;;;6.30;65.70;;;;;;6234754;28;20735;-59
2021/12/13 05:31:52;;;;;;;57.40;22.87;;;6.10;65.50;;;;;;6228443;28;20331;-60
2021/12/13 05:35:01;;;;;;;38.93;19.40;;;6.30;65.70;;;;;;6231512;28;20234;-60
2021/12/13 05:38:06;;;;;;;49.57;20.93;;;6.50;65.90;;;;;;6238817;28;20249;-60
2021/12/13 05:41:13;;;;;;;52.40;21.97;;;6.20;65.60;;;;;;6234055;28;20469;-60
2021/12/13 05:44:26;;;;;;;48.40;21.53;;;6.30;65.70;;;;;;6244959;28;20234;-59
2021/12/13 05:47:30;;;;;;;64.13;23.93;;;6.50;65.90;;;;;;6240171;28;20254;-60
2021/12/13 05:50:38;;;;;;;55.23;22.23;;;6.30;65.70;;;;;;6235674;28;20234;-59
2021/12/13 05:53:47;;;;;;;58.27;22.73;;;6.50;65.90;;;;;;6232014;28;20877;-59
2021/12/13 05:56:59;;;;;;;63.17;23.00;;;6.30;65.70;;;;;;6238263;28;20885;-59
2021/12/13 06:00:08;;;;;;;54.60;21.90;;;6.30;65.70;;;;;;6236273;28;20906;-60
2021/12/13 06:03:17;;;;;;;49.00;19.60;;;6.20;65.50;;;;;;6243875;28;20237;-60
2021/12/13 06:06:23;;;;;;;45.90;18.70;;;6.50;65.80;;;;;;6244281;28;20245;-58
2021/12/13 06:09:55;;;;;;;48.67;18.40;;;6.20;65.60;;;;;;6236046;28;20245;-60
2021/12/13 06:13:00;;;;;;;46.03;19.80;;;6.30;65.70;;;;;;6232144;28;20345;-59
2021/12/13 06:16:03;;;;;;;54.27;20.90;;;6.40;65.60;;;;;;6243197;28;20610;-60
2021/12/13 06:19:12;;;;;;;53.13;21.13;;;6.50;65.90;;;;;;6236429;28;20243;-59
2021/12/13 06:22:19;;;;;;;60.57;20.27;;;6.60;66.00;;;;;;6229393;28;20741;-59
2021/12/13 06:25:24;;;;;;;47.13;19.50;;;6.70;66.10;;;;;;6242691;28;20380;-59
2021/12/13 06:28:30;;;;;;;49.00;20.00;;;6.50;65.90;;;;;;6238137;28;20613;-60
2021/12/13 06:31:38;;;;;;;56.90;21.97;;;6.40;65.90;;;;;;6238975;28;20237;-61
2021/12/13 06:34:42;;;;;;;56.67;21.97;;;6.60;66.00;;;;;;6234772;28;20320;-60
2021/12/13 06:37:45;;;;;;;59.00;21.70;;;6.40;65.70;;;;;;6238338;28;20530;-60
2021/12/13 06:40:50;;;;;;;55.63;20.50;;;6.50;65.80;;;;;;6239229;28;20252;-60
2021/12/13 06:43:57;;;;;;;56.37;20.70;;;6.50;65.80;;;;;;6238300;28;20610;-59
2021/12/13 06:47:05;;;;;;;54.53;20.07;;;6.60;66.00;;;;;;6223899;28;20241;-59
2021/12/13 06:50:20;;;;;;;50.83;18.47;;;6.50;65.90;;;;;;6236753;28;20235;-60
2021/12/13 06:53:23;;;;;;;55.43;20.10;;;6.50;65.90;;;;;;6224488;28;20390;-59
2021/12/13 06:56:28;;;;;;;71.67;22.57;;;6.50;65.80;;;;;;6228968;28;20249;-60
2021/12/13 06:59:34;;;;;;;62.17;20.87;;;6.50;65.80;;;;;;6232322;28;20249;-60
2021/12/13 07:02:40;;;;;;;56.93;21.40;;;6.50;65.80;;;;;;6241899;28;20675;-59
2021/12/13 07:05:47;;;;;;;66.57;21.47;;;6.50;65.80;;;;;;6237151;28;20239;-59
2021/12/13 07:09:06;;;;;;;64.50;21.50;;;6.50;65.80;;;;;;6238639;28;20246;-58
2021/12/13 07:12:15;;;;;;;56.10;21.07;;;6.50;65.70;;;;;;6238855;28;20715;-59
2021/12/13 07:15:32;;;;;;;73.80;21.73;;;6.60;65.80;;;;;;6233744;28;20239;-60
2021/12/13 07:18:44;;;;;;;66.90;22.40;;;6.60;65.90;;;;;;6232994;28;20680;-60
2021/12/13 07:21:54;;;;;;;52.37;19.83;;;6.60;65.80;;;;;;6234625;28;20408;-60
2021/12/13 07:25:07;;;;;;;52.07;19.03;;;6.60;65.80;;;;;;6218610;28;20744;-61
2021/12/13 07:28:10;;;;;;;60.43;21.83;;;6.60;65.90;;;;;;6238573;28;20262;-60
2021/12/13 07:31:18;;;;;;;63.93;22.17;;;6.60;65.80;;;;;;6231451;28;20254;-61
2021/12/13 07:34:21;;;;;;;53.17;20.23;;;6.80;66.00;;;;;;6234074;28;20622;-61
2021/12/13 07:37:38;;;;;;;66.00;22.10;;;6.60;65.90;;;;;;6232731;28;20668;-61
2021/12/13 07:40:44;;;;;;;53.63;20.40;;;6.70;65.90;;;;;;6220378;28;20236;-60
2021/12/13 07:43:47;;;;;;;70.93;22.33;;;6.50;65.70;;;;;;6239457;28;20234;-62
2021/12/13 07:47:00;;;;;;;62.27;22.03;;;6.80;65.90;;;;;;6237352;28;20243;-60
2021/12/13 07:50:04;;;;;;;55.83;20.87;;;6.60;65.60;;;;;;6231979;28;20250;-61
2021/12/13 07:53:14;;;;;;;52.13;19.07;;;6.60;65.80;;;;;;6238015;28;20238;-60
2021/12/13 07:56:23;;;;;;;60.33;21.77;;;6.60;65.70;;;;;;6229465;28;20696;-57
2021/12/13 07:59:31;;;;;;;60.63;21.90;;;6.60;65.70;;;;;;6234811;28;20316;-60
2021/12/13 08:02:34;;;;;;;61.93;22.47;;;6.60;65.60;;;;;;6235059;28;20285;-61
2021/12/13 08:05:42;;;;;;;60.93;23.07;;;6.60;65.70;;;;;;6234375;28;20278;-62
2021/12/13 08:08:54;;;;;;;56.57;21.40;;;6.60;65.60;;;;;;6233605;28;20462;-60
2021/12/13 08:12:00;;;;;;;45.97;19.47;;;6.60;65.60;;;;;;6207035;28;20232;-60
2021/12/13 08:15:14;;;;;;;48.33;20.13;;;6.70;65.70;;;;;;6226773;28;20281;-60
2021/12/13 08:18:27;;;;;;;63.83;23.30;;;6.70;65.60;;;;;;6225081;28;20285;-59
2021/12/13 08:21:30;;;;;;;50.60;21.63;;;6.70;65.60;;;;;;6234099;28;20249;-59
2021/12/13 08:24:41;;;;;;;72.37;27.20;;;6.70;65.60;;;;;;6230746;28;20569;-60
2021/12/13 08:27:51;;;;;;;69.23;25.07;;;6.70;65.60;;;;;;6232150;28;20531;-60
2021/12/13 08:30:56;;;;;;;62.33;25.40;;;6.70;65.70;;;;;;6237104;28;20719;-61
2021/12/13 08:34:02;;;;;;;60.27;24.17;;;6.70;65.70;;;;;;6238414;28;20231;-61
2021/12/13 08:37:19;;;;;;;55.70;24.00;;;6.80;65.70;;;;;;6233606;28;21159;-60
2021/12/13 08:40:27;;;;;;;60.33;23.77;;;6.80;66.00;;;;;;6239085;28;20332;-60
2021/12/13 08:43:37;;;;;;;51.87;21.87;;;6.80;66.00;;;;;;6235225;28;20246;-60
2021/12/13 08:46:45;;;;;;;55.20;22.00;;;7.00;66.10;;;;;;6237347;28;20245;-59
2021/12/13 08:49:52;;;;;;;52.23;21.20;;;6.90;66.20;;;;;;6236826;28;20707;-60
2021/12/13 08:52:59;;;;;;;58.40;22.37;;;6.90;66.20;;;;;;6228694;28;20234;-60
2021/12/13 08:56:07;;;;;;;46.53;22.57;;;7.00;66.30;;;;;;6232905;28;20230;-60
2021/12/13 08:59:20;;;;;;;45.07;20.03;;;6.80;66.00;;;;;;6237146;28;20318;-60
2021/12/13 09:02:28;;;;;;;53.43;22.23;;;6.90;66.10;;;;;;6233914;28;20693;-59
2021/12/13 09:05:36;;;;;;;46.33;23.00;;;7.00;66.10;;;;;;6236490;28;20239;-59
2021/12/13 09:08:44;;;;;;;53.60;23.37;;;7.00;66.30;;;;;;6234130;28;20369;-60
2021/12/13 09:11:56;;;;;;;50.97;22.23;;;6.90;66.20;;;;;;6241777;28;20242;-60
2021/12/13 09:15:03;;;;;;;51.07;22.33;;;7.00;66.20;;;;;;6241169;28;20689;-59
2021/12/13 09:18:08;;;;;;;52.70;24.07;;;7.20;66.40;;;;;;6240824;28;20734;-61
2021/12/13 09:21:13;;;;;;;50.87;22.83;;;7.10;66.30;;;;;;6245040;28;20377;-60
2021/12/13 09:24:30;;;;;;;50.63;22.23;;;7.10;66.30;;;;;;6243387;28;20277;-61
2021/12/13 09:27:40;;;;;;;46.43;21.63;;;7.10;66.30;;;;;;6231021;28;20234;-60
2021/12/13 09:30:45;;;;;;;46.20;23.47;;;7.20;66.40;;;;;;6233627;28;20238;-60
2021/12/13 09:33:52;;;;;;;49.33;22.27;;;6.80;66.00;;;;;;6239369;28;20408;-60
2021/12/13 09:36:56;;;;;;;43.70;21.37;;;7.30;66.50;;;;;;6240756;28;20404;-61
2021/12/13 09:40:01;;;;;;;42.10;21.33;;;7.30;66.50;;;;;;6227572;28;20231;-59
2021/12/13 09:43:07;;;;;;;47.40;23.10;;;7.30;66.50;;;;;;6235408;28;20354;-60
2021/12/13 09:46:12;;;;;;;39.80;21.07;;;7.40;66.50;;;;;;6240681;28;20599;-60
2021/12/13 09:49:22;;;;;;;40.07;20.40;;;7.30;66.40;;;;;;6234726;28;20235;-61
2021/12/13 09:52:27;;;;;;;36.20;20.33;;;7.40;66.50;;;;;;6238991;28;20245;-60
2021/12/13 09:55:34;;;;;;;31.27;18.80;;;7.40;66.40;;;;;;6239980;28;20523;-61
2021/12/13 09:58:44;;;;;;;34.20;19.53;;;7.40;66.30;;;;;;6243513;28;20353;-59
2021/12/13 10:01:48;;;;;;;35.73;19.33;;;7.40;66.30;;;;;;6232654;28;20234;-59
2021/12/13 10:04:52;;;;;;;29.20;18.17;;;7.40;66.30;;;;;;6238705;28;20242;-61
2021/12/13 10:07:59;;;;;;;42.23;21.93;;;7.40;66.30;;;;;;6243971;28;20333;-62
2021/12/13 10:11:08;;;;;;;34.53;20.30;;;7.40;66.30;;;;;;6245875;28;20254;-61
2021/12/13 10:14:18;;;;;;;36.13;20.03;;;7.50;66.50;;;;;;6237262;28;20565;-59
2021/12/13 10:17:26;;;;;;;38.40;21.90;;;7.50;66.50;;;;;;6249667;28;20263;-60
2021/12/13 10:20:35;;;;;;;31.57;19.30;;;7.60;66.60;;;;;;6243803;28;20603;-61
2021/12/13 10:23:42;;;;;;;33.73;19.27;;;7.60;66.60;;;;;;6242806;28;20295;-62
2021/12/13 10:27:02;;;;;;;33.37;20.07;;;7.60;66.70;;;;;;6236113;28;20238;-60
2021/12/13 10:30:24;;;;;;;35.80;19.77;;;7.70;66.70;;;;;;6230077;28;20235;-61
2021/12/13 10:33:29;;;;;;;34.10;19.67;;;7.70;66.70;;;;;;6238178;28;20242;-59
2021/12/13 10:36:32;;;;;;;30.43;19.03;;;7.80;66.60;;;;;;6239266;28;20288;-59
2021/12/13 10:39:40;;;;;;;31.33;19.60;;;7.80;66.60;;;;;;6238778;28;20384;-60
2021/12/13 10:42:49;;;;;;;28.57;18.63;;;7.90;66.20;;;;;;6233566;28;20371;-58
2021/12/13 10:45:56;;;;;;;28.07;17.40;;;7.90;65.90;;;;;;6238784;28;20242;-58
2021/12/13 10:49:02;;;;;;;30.00;17.53;;;7.90;65.40;;;;;;6241444;28;20504;-60
2021/12/13 10:52:08;;;;;;;25.87;16.80;;;7.90;65.40;;;;;;6237359;28;20239;-60
2021/12/13 10:55:16;;;;;;;30.73;16.93;;;7.90;65.70;;;;;;6236586;28;20421;-58
2021/12/13 10:58:23;;;;;;;26.80;15.80;;;7.90;65.80;;;;;;6240076;28;20318;-59
2021/12/13 11:01:30;;;;;;;30.47;16.93;;;7.90;66.00;;;;;;6234955;28;20246;-59
2021/12/13 11:04:37;;;;;;;35.60;19.73;;;7.90;66.20;;;;;;6239932;28;20605;-58
2021/12/13 11:07:41;;;;;;;25.80;17.13;;;7.90;66.30;;;;;;6235047;28;20272;-59
2021/12/13 11:10:48;;;;;;;39.77;21.30;;;8.00;66.40;;;;;;6237969;28;20262;-60
2021/12/13 11:13:59;;;;;;;36.27;20.73;;;8.10;66.50;;;;;;6230092;28;20473;-59
2021/12/13 11:17:08;;;;;;;37.47;19.80;;;8.10;66.40;;;;;;6232934;28;20247;-58
2021/12/13 11:20:15;;;;;;;32.97;19.67;;;8.10;66.40;;;;;;6224024;28;20742;-59
2021/12/13 11:23:20;;;;;;;38.43;20.40;;;8.20;66.30;;;;;;6237663;28;20613;-59
2021/12/13 11:26:25;;;;;;;34.87;19.47;;;8.20;66.30;;;;;;6233507;28;20330;-59
2021/12/13 11:29:29;;;;;;;37.83;20.13;;;8.20;66.30;;;;;;6234026;28;20239;-60
2021/12/13 11:33:09;;;;;;;34.80;18.97;;;8.20;66.30;;;;;;6235225;28;20327;-59
2021/12/13 11:36:39;;;;;;;34.03;18.77;;;8.30;66.20;;;;;;6232650;28;20620;-60
2021/12/13 11:39:57;;;;;;;29.10;17.37;;;8.30;66.40;;;;;;6216332;28;20321;-60
2021/12/13 11:43:14;;;;;;;32.63;18.57;;;8.30;66.60;;;;;;6233569;28;20346;-60
2021/12/13 11:46:50;;;;;;;24.57;17.10;;;8.40;66.70;;;;;;6235671;28;20318;-60
2021/12/13 11:50:21;;;;;;;27.93;16.67;;;8.40;66.70;;;;;;6233303;28;20234;-61
2021/12/13 11:53:59;;;;;;;33.63;17.43;;;8.40;66.40;;;;;;6228846;28;20231;-60
2021/12/13 11:57:34;;;;;;;28.67;16.33;;;8.40;66.40;;;;;;6232888;28;20608;-61
2021/12/13 12:00:48;;;;;;;28.37;18.10;;;8.50;66.60;;;;;;6237642;28;20879;-59
2021/12/13 12:04:30;;;;;;;27.03;16.63;;;8.50;66.60;;;;;;6234702;28;20239;-60
2021/12/13 12:08:01;;;;;;;29.03;16.20;;;8.50;66.60;;;;;;6215784;28;20333;-60
2021/12/13 12:11:31;;;;;;;24.10;15.77;;;8.50;66.70;;;;;;6230549;28;20310;-59
2021/12/13 12:14:34;;;;;;;27.27;17.17;;;8.50;66.90;;;;;;6236904;28;20344;-59
2021/12/13 12:17:38;;;;;;;20.80;15.17;;;8.50;67.00;;;;;;6245380;28;20256;-58
2021/12/13 12:20:44;;;;;;;21.30;15.57;;;8.60;67.20;;;;;;6236201;28;20316;-59
2021/12/13 12:23:49;;;;;;;23.33;15.70;;;8.70;67.30;;;;;;6238742;28;20739;-60
2021/12/13 12:26:57;;;;;;;28.30;16.03;;;8.80;67.50;;;;;;6223255;28;20463;-59
2021/12/13 12:30:03;;;;;;;25.03;14.93;;;8.90;67.60;;;;;;6231666;28;20230;-59
2021/12/13 12:33:07;;;;;;;20.60;15.13;;;9.00;67.40;;;;;;6231918;28;20236;-59
2021/12/13 12:36:23;;;;;;;23.30;15.97;;;9.00;67.30;;;;;;6227135;28;20274;-59
2021/12/13 12:39:53;;;;;;;19.70;14.07;;;9.00;66.90;;;;;;6238639;28;20369;-60
2021/12/13 12:42:59;;;;;;;19.33;13.17;;;8.90;66.80;;;;;;6233460;28;20341;-59
2021/12/13 12:46:08;;;;;;;16.70;14.13;;;8.90;66.80;;;;;;6218700;28;20687;-60
2021/12/13 12:49:14;;;;;;;20.33;14.67;;;8.90;66.90;;;;;;6229427;28;20627;-60
2021/12/13 12:52:19;;;;;;;19.73;13.40;;;8.90;67.00;;;;;;6229634;28;20670;-59
2021/12/13 12:55:26;;;;;;;15.43;12.83;;;8.90;67.00;;;;;;6227896;28;20243;-58
2021/12/13 12:58:33;;;;;;;14.33;12.40;;;8.90;67.00;;;;;;6230754;28;20263;-60
2021/12/13 13:01:40;;;;;;;16.20;12.77;;;8.90;67.00;;;;;;6232001;28;20365;-60
2021/12/13 13:04:45;;;;;;;15.70;12.10;;;8.90;67.10;;;;;;6227501;28;20239;-59
2021/12/13 13:07:52;;;;;;;15.13;11.67;;;9.00;67.20;;;;;;6223865;28;20852;-60
2021/12/13 13:11:20;;;;;;;13.30;11.63;;;9.00;67.10;;;;;;6219645;28;20230;-59
2021/12/13 13:14:27;;;;;;;13.10;11.10;;;9.00;67.00;;;;;;6224263;28;20934;-59
2021/12/13 13:17:33;;;;;;;12.63;10.90;;;9.00;67.00;;;;;;6232342;28;20645;-58
2021/12/13 13:20:41;;;;;;;14.00;10.73;;;9.00;67.10;;;;;;6234200;28;20349;-58
2021/12/13 13:23:47;;;;;;;12.60;10.70;;;9.00;67.30;;;;;;6227761;28;20320;-59
2021/12/13 13:26:52;;;;;;;12.03;10.23;;;9.00;67.20;;;;;;6233553;28;20240;-58
2021/12/13 13:29:57;;;;;;;12.13;10.93;;;9.00;67.30;;;;;;6243189;28;20916;-59
2021/12/13 13:33:00;;;;;;;11.10;9.93;;;9.00;67.10;;;;;;6234949;28;20296;-60
2021/12/13 13:36:04;;;;;;;11.80;10.60;;;9.00;67.20;;;;;;6235351;28;20243;-62
2021/12/13 13:39:12;;;;;;;11.80;10.60;;;9.00;67.30;;;;;;6236015;28;20236;-60
2021/12/13 13:42:19;;;;;;;12.40;10.00;;;9.00;67.40;;;;;;6222308;28;20230;-60
2021/12/13 13:45:29;;;;;;;11.50;10.17;;;9.00;67.40;;;;;;6229518;28;20235;-59
2021/12/13 13:48:34;;;;;;;13.97;11.30;;;9.00;67.30;;;;;;6236312;28;20295;-61
2021/12/13 13:51:38;;;;;;;13.43;10.07;;;9.00;67.30;;;;;;6234329;28;20325;-60
2021/12/13 13:54:41;;;;;;;10.70;9.27;;;9.00;67.40;;;;;;6234195;28;20235;-60
2021/12/13 13:57:51;;;;;;;13.40;10.47;;;8.90;67.40;;;;;;6242879;28;20269;-61
2021/12/13 14:00:58;;;;;;;9.83;8.90;;;9.00;67.50;;;;;;6233846;28;20241;-59
2021/12/13 14:04:04;;;;;;;11.10;10.00;;;9.00;67.50;;;;;;6226175;28;20231;-58
2021/12/13 14:07:09;;;;;;;10.30;9.37;;;9.00;67.50;;;;;;6235947;28;20328;-59
2021/12/13 14:10:14;;;;;;;10.23;9.33;;;8.90;67.40;;;;;;6237803;28;20357;-60
2021/12/13 14:13:17;;;;;;;10.37;9.27;;;8.90;67.40;;;;;;6240687;28;20242;-59
2021/12/13 14:16:25;;;;;;;9.97;8.90;;;8.90;67.40;;;;;;6240598;28;20312;-58
2021/12/13 14:19:34;;;;;;;10.83;9.20;;;8.90;67.50;;;;;;6242088;28;20234;-58
2021/12/13 14:22:37;;;;;;;9.93;8.80;;;8.90;67.40;;;;;;6227647;28;20246;-59
2021/12/13 14:25:43;;;;;;;9.07;8.23;;;8.90;67.40;;;;;;6238713;28;20262;-60
2021/12/13 14:28:50;;;;;;;9.03;8.33;;;9.00;67.50;;;;;;6230313;28;20317;-59
2021/12/13 14:31:54;;;;;;;9.27;8.47;;;9.00;67.50;;;;;;6236316;28;20230;-59
2021/12/13 14:34:57;;;;;;;8.50;7.80;;;8.90;67.50;;;;;;6234462;28;20253;-60
2021/12/13 14:38:07;;;;;;;9.47;8.47;;;8.90;67.40;;;;;;6233907;28;20858;-60
2021/12/13 14:41:13;;;;;;;11.07;9.40;;;8.90;67.40;;;;;;6237046;28;20733;-60
2021/12/13 14:44:18;;;;;;;8.67;7.90;;;8.90;67.40;;;;;;6238992;28;20763;-60
2021/12/13 14:47:26;;;;;;;9.03;8.20;;;8.90;67.40;;;;;;6230248;28;20346;-59
2021/12/13 14:50:32;;;;;;;16.30;11.13;;;8.90;67.40;;;;;;6225006;28;20235;-61
2021/12/13 14:53:38;;;;;;;12.37;10.67;;;8.90;67.40;;;;;;6234019;28;20732;-60
2021/12/13 14:56:42;;;;;;;12.43;9.70;;;8.90;67.30;;;;;;6229351;28;20904;-59
2021/12/13 14:59:49;;;;;;;16.03;11.90;;;8.90;67.30;;;;;;6239294;28;20234;-60
2021/12/13 15:02:57;;;;;;;14.70;11.30;;;8.90;67.30;;;;;;6238671;28;20613;-60
2021/12/13 15:06:04;;;;;;;17.10;11.97;;;8.90;67.30;;;;;;6236000;28;20611;-59
2021/12/13 15:09:11;;;;;;;14.77;11.20;;;9.00;68.00;;;;;;6236533;28;20262;-59
2021/12/13 15:12:16;;;;;;;15.43;11.47;;;8.90;67.20;;;;;;6241116;28;20230;-60
2021/12/13 15:15:23;;;;;;;18.10;13.03;;;9.00;67.30;;;;;;6224463;28;20325;-59
2021/12/13 15:18:32;;;;;;;21.47;12.73;;;9.10;67.40;;;;;;6230930;28;20710;-60
2021/12/13 15:21:41;;;;;;;18.80;12.87;;;9.10;67.30;;;;;;6240228;28;20304;-59
2021/12/13 15:24:44;;;;;;;15.13;11.80;;;9.10;67.40;;;;;;6240115;28;20242;-60
2021/12/13 15:27:49;;;;;;;15.47;11.13;;;9.00;67.30;;;;;;6237279;28;20572;-60
2021/12/13 15:30:53;;;;;;;19.37;12.30;;;9.10;67.50;;;;;;6239661;28;20782;-58
2021/12/13 15:33:59;;;;;;;18.80;13.13;;;9.00;67.40;;;;;;6239971;28;20238;-60
2021/12/13 15:37:17;;;;;;;18.97;13.07;;;9.00;67.40;;;;;;6236267;28;20238;-57
2021/12/13 15:40:24;;;;;;;23.90;15.20;;;9.10;67.30;;;;;;6224546;28;20351;-59
2021/12/13 15:43:30;;;;;;;18.47;12.53;;;9.10;67.30;;;;;;6226192;28;20267;-62
2021/12/13 15:46:35;;;;;;;24.33;14.43;;;9.10;67.20;;;;;;6206601;28;20243;-58
2021/12/13 15:49:39;;;;;;;20.33;13.37;;;9.10;67.20;;;;;;6202933;28;20243;-59
2021/12/13 15:52:42;;;;;;;28.40;14.07;;;9.20;67.20;;;;;;6209568;28;20700;-59
2021/12/13 15:55:50;;;;;;;29.97;14.70;;;9.20;67.10;;;;;;6230924;28;20675;-59
2021/12/13 15:58:56;;;;;;;20.10;12.10;;;9.20;67.10;;;;;;6215920;28;20255;-58
2021/12/13 16:02:01;;;;;;;24.00;13.73;;;9.20;67.10;;;;;;6216214;28;20235;-59
2021/12/13 16:05:08;;;;;;;21.97;13.67;;;9.30;67.10;;;;;;6236207;28;20249;-59
2021/12/13 16:08:11;;;;;;;16.10;11.60;;;9.30;67.30;;;;;;6239834;28;20281;-61
2021/12/13 16:11:35;;;;;;;18.43;11.60;;;9.30;67.30;;;;;;6223633;28;20724;-59
2021/12/13 16:14:42;;;;;;;16.20;11.33;;;9.30;67.40;;;;;;6206755;28;20263;-61